sensor_id;sensor_type;location;lat;lon;timestamp;P1;durP1;ratioP1;P2;durP2;ratioP2
13026;SDS011;6580;42.680;23.324;2024-02-23T00:01:54;9.50;;;8.50;;
13026;SDS011;6580;42.680;23.324;2024-02-23T00:04:21;9.60;;;8.07;;
13026;SDS011;6580;42.680;23.324;2024-02-23T00:06:49;9.07;;;7.33;;
13026;SDS011;6580;42.680;23.324;2024-02-23T00:09:16;9.57;;;6.97;;
13026;SDS011;6580;42.680;23.324;2024-02-23T00:11:44;10.07;;;7.77;;
13026;SDS011;6580;42.680;23.324;2024-02-23T00:14:12;8.40;;;7.23;;
13026;SDS011;6580;42.680;23.324;2024-02-23T00:16:42;8.50;;;7.53;;
13026;SDS011;6580;42.680;23.324;2024-02-23T00:19:09;10.67;;;8.17;;
13026;SDS011;6580;42.680;23.324;2024-02-23T00:21:36;8.50;;;6.70;;
13026;SDS011;6580;42.680;23.324;2024-02-23T00:24:04;8.67;;;7.10;;
13026;SDS011;6580;42.680;23.324;2024-02-23T00:26:31;10.10;;;7.30;;
13026;SDS011;6580;42.680;23.324;2024-02-23T00:29:02;8.07;;;6.80;;
13026;SDS011;6580;42.680;23.324;2024-02-23T00:31:29;10.53;;;7.53;;
13026;SDS011;6580;42.680;23.324;2024-02-23T00:33:57;8.17;;;7.07;;
13026;SDS011;6580;42.680;23.324;2024-02-23T00:36:24;10.23;;;7.60;;
13026;SDS011;6580;42.680;23.324;2024-02-23T00:38:53;10.17;;;7.23;;
13026;SDS011;6580;42.680;23.324;2024-02-23T00:41:20;7.67;;;6.70;;
13026;SDS011;6580;42.680;23.324;2024-02-23T00:43:48;8.37;;;6.90;;
13026;SDS011;6580;42.680;23.324;2024-02-23T00:46:18;9.57;;;7.67;;
13026;SDS011;6580;42.680;23.324;2024-02-23T00:48:44;8.50;;;6.83;;
13026;SDS011;6580;42.680;23.324;2024-02-23T00:51:12;8.47;;;7.37;;
13026;SDS011;6580;42.680;23.324;2024-02-23T00:53:39;8.13;;;7.33;;
13026;SDS011;6580;42.680;23.324;2024-02-23T00:56:09;8.43;;;7.17;;
13026;SDS011;6580;42.680;23.324;2024-02-23T00:58:36;8.73;;;7.50;;
13026;SDS011;6580;42.680;23.324;2024-02-23T01:01:03;9.30;;;7.07;;
13026;SDS011;6580;42.680;23.324;2024-02-23T01:03:32;8.10;;;6.90;;
13026;SDS011;6580;42.680;23.324;2024-02-23T01:05:59;8.30;;;7.03;;
13026;SDS011;6580;42.680;23.324;2024-02-23T01:08:26;9.43;;;6.80;;
13026;SDS011;6580;42.680;23.324;2024-02-23T01:10:56;8.33;;;6.87;;
13026;SDS011;6580;42.680;23.324;2024-02-23T01:13:24;7.83;;;6.87;;
13026;SDS011;6580;42.680;23.324;2024-02-23T01:15:51;7.30;;;6.60;;
13026;SDS011;6580;42.680;23.324;2024-02-23T01:18:19;9.23;;;7.27;;
13026;SDS011;6580;42.680;23.324;2024-02-23T01:20:48;7.07;;;6.37;;
13026;SDS011;6580;42.680;23.324;2024-02-23T01:23:15;9.83;;;6.90;;
13026;SDS011;6580;42.680;23.324;2024-02-23T01:25:42;8.57;;;6.97;;
13026;SDS011;6580;42.680;23.324;2024-02-23T01:28:09;9.00;;;7.13;;
13026;SDS011;6580;42.680;23.324;2024-02-23T01:30:36;7.53;;;5.90;;
13026;SDS011;6580;42.680;23.324;2024-02-23T01:33:04;8.53;;;6.53;;
13026;SDS011;6580;42.680;23.324;2024-02-23T01:35:32;7.40;;;6.50;;
13026;SDS011;6580;42.680;23.324;2024-02-23T01:38:03;9.10;;;6.80;;
13026;SDS011;6580;42.680;23.324;2024-02-23T01:40:30;7.90;;;6.20;;
13026;SDS011;6580;42.680;23.324;2024-02-23T01:43:01;7.13;;;6.43;;
13026;SDS011;6580;42.680;23.324;2024-02-23T01:45:29;8.67;;;6.93;;
13026;SDS011;6580;42.680;23.324;2024-02-23T01:47:58;7.87;;;7.07;;
13026;SDS011;6580;42.680;23.324;2024-02-23T01:50:25;7.43;;;6.57;;
13026;SDS011;6580;42.680;23.324;2024-02-23T01:52:53;7.77;;;6.67;;
13026;SDS011;6580;42.680;23.324;2024-02-23T01:55:24;8.93;;;7.33;;
13026;SDS011;6580;42.680;23.324;2024-02-23T01:57:51;7.83;;;7.00;;
13026;SDS011;6580;42.680;23.324;2024-02-23T02:00:19;7.40;;;6.63;;
13026;SDS011;6580;42.680;23.324;2024-02-23T02:02:47;8.47;;;6.63;;
13026;SDS011;6580;42.680;23.324;2024-02-23T02:05:16;8.43;;;6.73;;
13026;SDS011;6580;42.680;23.324;2024-02-23T02:07:46;7.50;;;6.77;;
13026;SDS011;6580;42.680;23.324;2024-02-23T02:10:19;8.40;;;7.00;;
13026;SDS011;6580;42.680;23.324;2024-02-23T02:12:52;8.43;;;6.83;;
13026;SDS011;6580;42.680;23.324;2024-02-23T02:15:20;8.03;;;6.97;;
13026;SDS011;6580;42.680;23.324;2024-02-23T02:17:47;8.83;;;6.67;;
13026;SDS011;6580;42.680;23.324;2024-02-23T02:20:14;7.93;;;6.90;;
13026;SDS011;6580;42.680;23.324;2024-02-23T02:22:50;7.37;;;6.33;;
13026;SDS011;6580;42.680;23.324;2024-02-23T02:25:17;7.70;;;6.93;;
13026;SDS011;6580;42.680;23.324;2024-02-23T02:27:44;8.40;;;7.37;;
13026;SDS011;6580;42.680;23.324;2024-02-23T02:30:13;8.60;;;6.87;;
13026;SDS011;6580;42.680;23.324;2024-02-23T02:32:40;10.47;;;6.60;;
13026;SDS011;6580;42.680;23.324;2024-02-23T02:35:07;6.73;;;6.07;;
13026;SDS011;6580;42.680;23.324;2024-02-23T02:37:39;8.10;;;7.30;;
13026;SDS011;6580;42.680;23.324;2024-02-23T02:40:07;7.63;;;6.83;;
13026;SDS011;6580;42.680;23.324;2024-02-23T02:42:35;8.07;;;7.27;;
13026;SDS011;6580;42.680;23.324;2024-02-23T02:45:04;9.70;;;7.20;;
13026;SDS011;6580;42.680;23.324;2024-02-23T02:47:33;8.67;;;7.37;;
13026;SDS011;6580;42.680;23.324;2024-02-23T02:50:06;9.30;;;7.37;;
13026;SDS011;6580;42.680;23.324;2024-02-23T02:52:35;8.43;;;6.97;;
13026;SDS011;6580;42.680;23.324;2024-02-23T02:55:02;8.70;;;7.40;;
13026;SDS011;6580;42.680;23.324;2024-02-23T02:57:30;8.80;;;6.87;;
13026;SDS011;6580;42.680;23.324;2024-02-23T02:59:57;9.73;;;7.47;;
13026;SDS011;6580;42.680;23.324;2024-02-23T03:02:24;11.20;;;7.50;;
13026;SDS011;6580;42.680;23.324;2024-02-23T03:04:54;7.93;;;7.07;;
13026;SDS011;6580;42.680;23.324;2024-02-23T03:07:24;9.37;;;7.27;;
13026;SDS011;6580;42.680;23.324;2024-02-23T03:09:52;8.03;;;7.20;;
13026;SDS011;6580;42.680;23.324;2024-02-23T03:12:19;7.40;;;6.47;;
13026;SDS011;6580;42.680;23.324;2024-02-23T03:14:46;9.07;;;7.47;;
13026;SDS011;6580;42.680;23.324;2024-02-23T03:17:13;9.00;;;8.10;;
13026;SDS011;6580;42.680;23.324;2024-02-23T03:19:40;10.13;;;7.77;;
13026;SDS011;6580;42.680;23.324;2024-02-23T03:22:08;10.20;;;8.03;;
13026;SDS011;6580;42.680;23.324;2024-02-23T03:24:35;9.50;;;7.17;;
13026;SDS011;6580;42.680;23.324;2024-02-23T03:27:03;8.70;;;7.13;;
13026;SDS011;6580;42.680;23.324;2024-02-23T03:29:30;10.97;;;7.73;;
13026;SDS011;6580;42.680;23.324;2024-02-23T03:31:58;8.70;;;6.80;;
13026;SDS011;6580;42.680;23.324;2024-02-23T03:34:27;9.73;;;7.80;;
13026;SDS011;6580;42.680;23.324;2024-02-23T03:36:55;10.53;;;7.77;;
13026;SDS011;6580;42.680;23.324;2024-02-23T03:39:24;10.50;;;7.63;;
13026;SDS011;6580;42.680;23.324;2024-02-23T03:41:53;9.90;;;7.90;;
13026;SDS011;6580;42.680;23.324;2024-02-23T03:44:21;9.17;;;7.67;;
13026;SDS011;6580;42.680;23.324;2024-02-23T03:46:48;9.40;;;8.10;;
13026;SDS011;6580;42.680;23.324;2024-02-23T03:49:15;8.47;;;7.13;;
13026;SDS011;6580;42.680;23.324;2024-02-23T03:51:42;7.67;;;6.93;;
13026;SDS011;6580;42.680;23.324;2024-02-23T03:54:09;8.07;;;6.93;;
13026;SDS011;6580;42.680;23.324;2024-02-23T03:56:41;9.67;;;7.27;;
13026;SDS011;6580;42.680;23.324;2024-02-23T03:59:09;11.00;;;8.40;;
13026;SDS011;6580;42.680;23.324;2024-02-23T04:01:37;8.70;;;7.23;;
13026;SDS011;6580;42.680;23.324;2024-02-23T04:04:06;10.50;;;7.83;;
13026;SDS011;6580;42.680;23.324;2024-02-23T04:06:33;9.03;;;7.33;;
13026;SDS011;6580;42.680;23.324;2024-02-23T04:09:01;8.50;;;7.40;;
13026;SDS011;6580;42.680;23.324;2024-02-23T04:11:30;11.20;;;8.33;;
13026;SDS011;6580;42.680;23.324;2024-02-23T04:13:59;9.47;;;7.80;;
13026;SDS011;6580;42.680;23.324;2024-02-23T04:16:27;9.43;;;7.83;;
13026;SDS011;6580;42.680;23.324;2024-02-23T04:18:55;8.80;;;7.03;;
13026;SDS011;6580;42.680;23.324;2024-02-23T04:21:22;9.40;;;7.27;;
13026;SDS011;6580;42.680;23.324;2024-02-23T04:23:50;9.03;;;7.63;;
13026;SDS011;6580;42.680;23.324;2024-02-23T04:26:17;10.07;;;7.27;;
13026;SDS011;6580;42.680;23.324;2024-02-23T04:28:45;10.33;;;8.10;;
13026;SDS011;6580;42.680;23.324;2024-02-23T04:31:16;11.40;;;8.37;;
13026;SDS011;6580;42.680;23.324;2024-02-23T04:33:43;10.93;;;7.90;;
13026;SDS011;6580;42.680;23.324;2024-02-23T04:36:10;10.63;;;8.10;;
13026;SDS011;6580;42.680;23.324;2024-02-23T04:38:37;9.50;;;8.50;;
13026;SDS011;6580;42.680;23.324;2024-02-23T04:41:04;9.47;;;8.10;;
13026;SDS011;6580;42.680;23.324;2024-02-23T04:43:33;12.17;;;9.50;;
13026;SDS011;6580;42.680;23.324;2024-02-23T04:46:03;12.63;;;8.70;;
13026;SDS011;6580;42.680;23.324;2024-02-23T04:48:32;9.93;;;8.03;;
13026;SDS011;6580;42.680;23.324;2024-02-23T04:51:01;9.80;;;8.00;;
13026;SDS011;6580;42.680;23.324;2024-02-23T04:53:28;8.33;;;7.30;;
13026;SDS011;6580;42.680;23.324;2024-02-23T04:55:55;11.77;;;8.90;;
13026;SDS011;6580;42.680;23.324;2024-02-23T04:58:22;12.47;;;8.10;;
13026;SDS011;6580;42.680;23.324;2024-02-23T05:00:51;9.87;;;8.20;;
13026;SDS011;6580;42.680;23.324;2024-02-23T05:03:18;10.57;;;8.40;;
13026;SDS011;6580;42.680;23.324;2024-02-23T05:05:47;12.17;;;9.27;;
13026;SDS011;6580;42.680;23.324;2024-02-23T05:08:18;14.57;;;10.37;;
13026;SDS011;6580;42.680;23.324;2024-02-23T05:10:45;13.90;;;9.80;;
13026;SDS011;6580;42.680;23.324;2024-02-23T05:13:13;11.97;;;10.20;;
13026;SDS011;6580;42.680;23.324;2024-02-23T05:15:40;16.07;;;8.97;;
13026;SDS011;6580;42.680;23.324;2024-02-23T05:18:07;11.67;;;8.23;;
13026;SDS011;6580;42.680;23.324;2024-02-23T05:20:35;11.67;;;9.33;;
13026;SDS011;6580;42.680;23.324;2024-02-23T05:23:07;11.00;;;8.67;;
13026;SDS011;6580;42.680;23.324;2024-02-23T05:25:35;10.20;;;8.67;;
13026;SDS011;6580;42.680;23.324;2024-02-23T05:28:02;10.03;;;8.97;;
13026;SDS011;6580;42.680;23.324;2024-02-23T05:30:29;11.60;;;8.80;;
13026;SDS011;6580;42.680;23.324;2024-02-23T05:32:57;11.73;;;8.27;;
13026;SDS011;6580;42.680;23.324;2024-02-23T05:35:27;11.63;;;8.60;;
13026;SDS011;6580;42.680;23.324;2024-02-23T05:37:56;11.83;;;8.90;;
13026;SDS011;6580;42.680;23.324;2024-02-23T05:40:25;12.37;;;8.90;;
13026;SDS011;6580;42.680;23.324;2024-02-23T05:42:54;12.23;;;9.10;;
13026;SDS011;6580;42.680;23.324;2024-02-23T05:45:22;12.63;;;8.33;;
13026;SDS011;6580;42.680;23.324;2024-02-23T05:47:54;10.07;;;7.60;;
13026;SDS011;6580;42.680;23.324;2024-02-23T05:50:24;11.37;;;8.17;;
13026;SDS011;6580;42.680;23.324;2024-02-23T05:52:52;10.50;;;8.37;;
13026;SDS011;6580;42.680;23.324;2024-02-23T05:55:19;9.83;;;8.03;;
13026;SDS011;6580;42.680;23.324;2024-02-23T05:57:47;10.03;;;8.27;;
13026;SDS011;6580;42.680;23.324;2024-02-23T06:00:16;12.27;;;8.43;;
13026;SDS011;6580;42.680;23.324;2024-02-23T06:02:44;13.57;;;9.60;;
13026;SDS011;6580;42.680;23.324;2024-02-23T06:05:12;9.87;;;8.70;;
13026;SDS011;6580;42.680;23.324;2024-02-23T06:07:39;14.13;;;9.60;;
13026;SDS011;6580;42.680;23.324;2024-02-23T06:10:07;11.90;;;8.77;;
13026;SDS011;6580;42.680;23.324;2024-02-23T06:12:36;12.23;;;8.83;;
13026;SDS011;6580;42.680;23.324;2024-02-23T06:15:08;12.93;;;9.93;;
13026;SDS011;6580;42.680;23.324;2024-02-23T06:17:36;12.87;;;9.47;;
13026;SDS011;6580;42.680;23.324;2024-02-23T06:20:11;14.20;;;10.23;;
13026;SDS011;6580;42.680;23.324;2024-02-23T06:22:39;11.80;;;9.10;;
13026;SDS011;6580;42.680;23.324;2024-02-23T06:25:08;11.23;;;8.70;;
13026;SDS011;6580;42.680;23.324;2024-02-23T06:27:36;9.67;;;8.63;;
13026;SDS011;6580;42.680;23.324;2024-02-23T06:30:04;13.53;;;10.07;;
13026;SDS011;6580;42.680;23.324;2024-02-23T06:32:33;10.20;;;9.13;;
13026;SDS011;6580;42.680;23.324;2024-02-23T06:35:00;10.07;;;8.70;;
13026;SDS011;6580;42.680;23.324;2024-02-23T06:37:28;12.67;;;9.80;;
13026;SDS011;6580;42.680;23.324;2024-02-23T06:39:57;13.67;;;9.67;;
13026;SDS011;6580;42.680;23.324;2024-02-23T06:42:24;12.57;;;8.90;;
13026;SDS011;6580;42.680;23.324;2024-02-23T06:44:51;12.53;;;9.30;;
13026;SDS011;6580;42.680;23.324;2024-02-23T06:47:19;11.13;;;8.97;;
13026;SDS011;6580;42.680;23.324;2024-02-23T06:49:47;12.80;;;8.97;;
13026;SDS011;6580;42.680;23.324;2024-02-23T06:52:14;10.20;;;8.70;;
13026;SDS011;6580;42.680;23.324;2024-02-23T06:54:41;12.73;;;8.50;;
13026;SDS011;6580;42.680;23.324;2024-02-23T06:57:08;11.60;;;8.87;;
13026;SDS011;6580;42.680;23.324;2024-02-23T06:59:35;12.20;;;8.97;;
13026;SDS011;6580;42.680;23.324;2024-02-23T07:02:02;11.17;;;8.90;;
13026;SDS011;6580;42.680;23.324;2024-02-23T07:04:30;11.40;;;9.53;;
13026;SDS011;6580;42.680;23.324;2024-02-23T07:06:59;10.37;;;8.80;;
13026;SDS011;6580;42.680;23.324;2024-02-23T07:09:31;12.93;;;9.37;;
13026;SDS011;6580;42.680;23.324;2024-02-23T07:11:58;11.27;;;9.10;;
13026;SDS011;6580;42.680;23.324;2024-02-23T07:14:25;10.10;;;8.70;;
13026;SDS011;6580;42.680;23.324;2024-02-23T07:16:52;11.20;;;8.83;;
13026;SDS011;6580;42.680;23.324;2024-02-23T07:19:19;11.47;;;9.40;;
13026;SDS011;6580;42.680;23.324;2024-02-23T07:21:47;14.90;;;9.33;;
13026;SDS011;6580;42.680;23.324;2024-02-23T07:24:17;12.20;;;9.47;;
13026;SDS011;6580;42.680;23.324;2024-02-23T07:26:44;10.57;;;9.00;;
13026;SDS011;6580;42.680;23.324;2024-02-23T07:29:11;13.47;;;10.50;;
13026;SDS011;6580;42.680;23.324;2024-02-23T07:31:39;12.00;;;9.73;;
13026;SDS011;6580;42.680;23.324;2024-02-23T07:34:06;13.03;;;10.47;;
13026;SDS011;6580;42.680;23.324;2024-02-23T07:36:33;11.37;;;9.10;;
13026;SDS011;6580;42.680;23.324;2024-02-23T07:39:00;12.17;;;10.03;;
13026;SDS011;6580;42.680;23.324;2024-02-23T07:41:29;17.43;;;10.60;;
13026;SDS011;6580;42.680;23.324;2024-02-23T07:43:56;12.03;;;10.43;;
13026;SDS011;6580;42.680;23.324;2024-02-23T07:46:23;11.93;;;9.97;;
13026;SDS011;6580;42.680;23.324;2024-02-23T07:48:50;14.23;;;10.23;;
13026;SDS011;6580;42.680;23.324;2024-02-23T07:51:17;13.53;;;10.03;;
13026;SDS011;6580;42.680;23.324;2024-02-23T07:53:44;11.67;;;9.83;;
13026;SDS011;6580;42.680;23.324;2024-02-23T07:56:11;12.33;;;10.70;;
13026;SDS011;6580;42.680;23.324;2024-02-23T07:58:40;11.00;;;9.70;;
13026;SDS011;6580;42.680;23.324;2024-02-23T08:01:07;12.77;;;9.73;;
13026;SDS011;6580;42.680;23.324;2024-02-23T08:03:34;12.87;;;9.87;;
13026;SDS011;6580;42.680;23.324;2024-02-23T08:06:01;16.57;;;9.93;;
13026;SDS011;6580;42.680;23.324;2024-02-23T08:08:30;14.87;;;11.50;;
13026;SDS011;6580;42.680;23.324;2024-02-23T08:11:00;14.97;;;9.67;;
13026;SDS011;6580;42.680;23.324;2024-02-23T08:13:27;15.53;;;9.63;;
13026;SDS011;6580;42.680;23.324;2024-02-23T08:15:55;11.50;;;9.60;;
13026;SDS011;6580;42.680;23.324;2024-02-23T08:18:23;11.57;;;9.43;;
13026;SDS011;6580;42.680;23.324;2024-02-23T08:20:51;11.80;;;9.10;;
13026;SDS011;6580;42.680;23.324;2024-02-23T08:23:18;14.67;;;9.17;;
13026;SDS011;6580;42.680;23.324;2024-02-23T08:25:46;15.27;;;10.63;;
13026;SDS011;6580;42.680;23.324;2024-02-23T08:28:13;12.87;;;10.13;;
13026;SDS011;6580;42.680;23.324;2024-02-23T08:30:40;10.43;;;9.33;;
13026;SDS011;6580;42.680;23.324;2024-02-23T08:33:09;13.23;;;11.13;;
13026;SDS011;6580;42.680;23.324;2024-02-23T08:35:36;12.20;;;9.87;;
13026;SDS011;6580;42.680;23.324;2024-02-23T08:38:03;10.80;;;9.40;;
13026;SDS011;6580;42.680;23.324;2024-02-23T08:40:32;13.10;;;9.93;;
13026;SDS011;6580;42.680;23.324;2024-02-23T08:43:00;11.17;;;9.20;;
13026;SDS011;6580;42.680;23.324;2024-02-23T08:45:28;11.00;;;9.67;;
13026;SDS011;6580;42.680;23.324;2024-02-23T08:47:55;12.47;;;9.70;;
13026;SDS011;6580;42.680;23.324;2024-02-23T08:50:25;13.57;;;9.70;;
13026;SDS011;6580;42.680;23.324;2024-02-23T08:52:54;12.27;;;10.00;;
13026;SDS011;6580;42.680;23.324;2024-02-23T08:55:24;10.80;;;9.10;;
13026;SDS011;6580;42.680;23.324;2024-02-23T08:57:51;11.57;;;8.90;;
13026;SDS011;6580;42.680;23.324;2024-02-23T09:00:18;10.37;;;8.80;;
13026;SDS011;6580;42.680;23.324;2024-02-23T09:02:45;12.97;;;9.17;;
13026;SDS011;6580;42.680;23.324;2024-02-23T09:05:12;10.23;;;8.47;;
13026;SDS011;6580;42.680;23.324;2024-02-23T09:07:41;12.53;;;9.57;;
13026;SDS011;6580;42.680;23.324;2024-02-23T09:10:08;10.57;;;9.47;;
13026;SDS011;6580;42.680;23.324;2024-02-23T09:12:37;10.30;;;8.90;;
13026;SDS011;6580;42.680;23.324;2024-02-23T09:15:04;9.47;;;8.37;;
13026;SDS011;6580;42.680;23.324;2024-02-23T09:17:32;9.30;;;8.30;;
13026;SDS011;6580;42.680;23.324;2024-02-23T09:19:59;9.30;;;8.30;;
13026;SDS011;6580;42.680;23.324;2024-02-23T09:22:26;8.50;;;7.45;;
13026;SDS011;6580;42.680;23.324;2024-02-23T09:24:55;10.02;;;7.72;;
13026;SDS011;6580;42.680;23.324;2024-02-23T09:27:22;7.33;;;6.53;;
13026;SDS011;6580;42.680;23.324;2024-02-23T09:29:49;7.40;;;6.70;;
13026;SDS011;6580;42.680;23.324;2024-02-23T09:32:17;7.33;;;6.60;;
13026;SDS011;6580;42.680;23.324;2024-02-23T09:34:44;8.27;;;7.32;;
13026;SDS011;6580;42.680;23.324;2024-02-23T09:37:11;6.32;;;5.72;;
13026;SDS011;6580;42.680;23.324;2024-02-23T09:39:38;6.75;;;5.88;;
13026;SDS011;6580;42.680;23.324;2024-02-23T09:42:10;10.07;;;6.30;;
13026;SDS011;6580;42.680;23.324;2024-02-23T09:44:37;5.88;;;5.28;;
13026;SDS011;6580;42.680;23.324;2024-02-23T09:47:05;6.32;;;5.72;;
13026;SDS011;6580;42.680;23.324;2024-02-23T09:49:36;5.38;;;4.07;;
13026;SDS011;6580;42.680;23.324;2024-02-23T09:52:07;4.30;;;3.90;;
13026;SDS011;6580;42.680;23.324;2024-02-23T09:54:35;5.50;;;4.97;;
13026;SDS011;6580;42.680;23.324;2024-02-23T09:57:06;14.60;;;11.68;;
13026;SDS011;6580;42.680;23.324;2024-02-23T09:59:38;6.75;;;5.35;;
13026;SDS011;6580;42.680;23.324;2024-02-23T10:02:06;8.18;;;5.35;;
13026;SDS011;6580;42.680;23.324;2024-02-23T10:04:35;5.72;;;4.45;;
13026;SDS011;6580;42.680;23.324;2024-02-23T10:07:04;6.63;;;5.53;;
13026;SDS011;6580;42.680;23.324;2024-02-23T10:09:31;6.18;;;4.97;;
13026;SDS011;6580;42.680;23.324;2024-02-23T10:11:58;5.28;;;4.78;;
13026;SDS011;6580;42.680;23.324;2024-02-23T10:14:26;5.60;;;5.10;;
13026;SDS011;6580;42.680;23.324;2024-02-23T10:16:53;5.40;;;4.60;;
13026;SDS011;6580;42.680;23.324;2024-02-23T10:19:20;3.22;;;2.92;;
13026;SDS011;6580;42.680;23.324;2024-02-23T10:21:47;3.63;;;3.20;;
13026;SDS011;6580;42.680;23.324;2024-02-23T10:24:15;4.25;;;3.13;;
13026;SDS011;6580;42.680;23.324;2024-02-23T10:26:42;3.00;;;2.70;;
13026;SDS011;6580;42.680;23.324;2024-02-23T10:29:10;3.63;;;3.33;;
13026;SDS011;6580;42.680;23.324;2024-02-23T10:31:39;4.05;;;3.65;;
13026;SDS011;6580;42.680;23.324;2024-02-23T10:34:12;3.22;;;2.85;;
13026;SDS011;6580;42.680;23.324;2024-02-23T10:36:43;6.07;;;3.33;;
13026;SDS011;6580;42.680;23.324;2024-02-23T10:39:10;3.05;;;2.85;;
13026;SDS011;6580;42.680;23.324;2024-02-23T10:41:45;3.13;;;2.83;;
13026;SDS011;6580;42.680;23.324;2024-02-23T10:44:19;3.38;;;3.08;;
13026;SDS011;6580;42.680;23.324;2024-02-23T10:46:49;5.40;;;3.72;;
13026;SDS011;6580;42.680;23.324;2024-02-23T10:49:18;2.88;;;2.67;;
13026;SDS011;6580;42.680;23.324;2024-02-23T10:51:47;2.80;;;2.58;;
13026;SDS011;6580;42.680;23.324;2024-02-23T10:54:15;3.33;;;3.08;;
13026;SDS011;6580;42.680;23.324;2024-02-23T10:56:46;2.92;;;2.63;;
13026;SDS011;6580;42.680;23.324;2024-02-23T10:59:13;4.25;;;3.30;;
13026;SDS011;6580;42.680;23.324;2024-02-23T11:01:43;3.20;;;3.00;;
13026;SDS011;6580;42.680;23.324;2024-02-23T11:04:15;4.60;;;2.90;;
13026;SDS011;6580;42.680;23.324;2024-02-23T11:06:48;3.05;;;2.85;;
13026;SDS011;6580;42.680;23.324;2024-02-23T11:09:16;2.80;;;2.60;;
13026;SDS011;6580;42.680;23.324;2024-02-23T11:11:50;3.08;;;2.88;;
13026;SDS011;6580;42.680;23.324;2024-02-23T11:14:29;4.40;;;2.97;;
13026;SDS011;6580;42.680;23.324;2024-02-23T11:16:57;4.25;;;3.15;;
13026;SDS011;6580;42.680;23.324;2024-02-23T11:19:33;3.95;;;2.80;;
13026;SDS011;6580;42.680;23.324;2024-02-23T11:22:01;2.95;;;2.50;;
13026;SDS011;6580;42.680;23.324;2024-02-23T11:24:28;5.03;;;3.08;;
13026;SDS011;6580;42.680;23.324;2024-02-23T11:26:58;2.78;;;2.58;;
13026;SDS011;6580;42.680;23.324;2024-02-23T11:29:33;2.60;;;2.40;;
13026;SDS011;6580;42.680;23.324;2024-02-23T11:32:01;2.60;;;2.40;;
13026;SDS011;6580;42.680;23.324;2024-02-23T11:34:34;3.47;;;3.08;;
13026;SDS011;6580;42.680;23.324;2024-02-23T11:37:07;3.33;;;2.70;;
13026;SDS011;6580;42.680;23.324;2024-02-23T11:39:37;3.53;;;2.65;;
13026;SDS011;6580;42.680;23.324;2024-02-23T11:42:06;2.65;;;2.45;;
13026;SDS011;6580;42.680;23.324;2024-02-23T11:44:34;2.60;;;2.40;;
13026;SDS011;6580;42.680;23.324;2024-02-23T11:47:01;3.72;;;2.75;;
13026;SDS011;6580;42.680;23.324;2024-02-23T11:49:29;3.20;;;2.60;;
13026;SDS011;6580;42.680;23.324;2024-02-23T11:51:58;3.20;;;2.38;;
13026;SDS011;6580;42.680;23.324;2024-02-23T11:54:27;3.60;;;2.40;;
13026;SDS011;6580;42.680;23.324;2024-02-23T11:56:54;2.20;;;2.00;;
13026;SDS011;6580;42.680;23.324;2024-02-23T11:59:21;3.50;;;2.92;;
13026;SDS011;6580;42.680;23.324;2024-02-23T12:01:49;2.80;;;2.60;;
13026;SDS011;6580;42.680;23.324;2024-02-23T12:04:16;2.93;;;2.73;;
13026;SDS011;6580;42.680;23.324;2024-02-23T12:06:43;3.30;;;3.03;;
13026;SDS011;6580;42.680;23.324;2024-02-23T12:09:13;3.73;;;3.43;;
13026;SDS011;6580;42.680;23.324;2024-02-23T12:11:44;3.08;;;2.80;;
13026;SDS011;6580;42.680;23.324;2024-02-23T12:14:11;2.63;;;2.43;;
13026;SDS011;6580;42.680;23.324;2024-02-23T12:16:37;3.13;;;2.43;;
13026;SDS011;6580;42.680;23.324;2024-02-23T12:19:08;3.70;;;3.40;;
13026;SDS011;6580;42.680;23.324;2024-02-23T12:21:36;2.80;;;2.57;;
13026;SDS011;6580;42.680;23.324;2024-02-23T12:24:04;2.63;;;2.42;;
13026;SDS011;6580;42.680;23.324;2024-02-23T12:26:34;2.70;;;2.20;;
13026;SDS011;6580;42.680;23.324;2024-02-23T12:29:01;3.00;;;2.80;;
13026;SDS011;6580;42.680;23.324;2024-02-23T12:31:32;2.80;;;2.60;;
13026;SDS011;6580;42.680;23.324;2024-02-23T12:33:59;2.53;;;2.33;;
13026;SDS011;6580;42.680;23.324;2024-02-23T12:36:27;2.75;;;2.55;;
13026;SDS011;6580;42.680;23.324;2024-02-23T12:38:59;2.60;;;2.40;;
13026;SDS011;6580;42.680;23.324;2024-02-23T12:41:26;3.03;;;2.70;;
13026;SDS011;6580;42.680;23.324;2024-02-23T12:43:55;2.40;;;2.20;;
13026;SDS011;6580;42.680;23.324;2024-02-23T12:46:22;3.10;;;2.55;;
13026;SDS011;6580;42.680;23.324;2024-02-23T12:48:50;2.80;;;2.60;;
13026;SDS011;6580;42.680;23.324;2024-02-23T12:51:18;3.00;;;2.75;;
13026;SDS011;6580;42.680;23.324;2024-02-23T12:53:45;2.77;;;2.50;;
13026;SDS011;6580;42.680;23.324;2024-02-23T12:56:13;2.70;;;2.50;;
13026;SDS011;6580;42.680;23.324;2024-02-23T12:58:41;4.53;;;2.77;;
13026;SDS011;6580;42.680;23.324;2024-02-23T13:01:11;2.57;;;2.37;;
13026;SDS011;6580;42.680;23.324;2024-02-23T13:03:39;2.35;;;2.15;;
13026;SDS011;6580;42.680;23.324;2024-02-23T13:06:06;3.50;;;2.45;;
13026;SDS011;6580;42.680;23.324;2024-02-23T13:08:34;2.40;;;2.20;;
13026;SDS011;6580;42.680;23.324;2024-02-23T13:11:01;2.50;;;2.30;;
13026;SDS011;6580;42.680;23.324;2024-02-23T13:13:28;2.10;;;2.00;;
13026;SDS011;6580;42.680;23.324;2024-02-23T13:15:57;3.00;;;2.77;;
13026;SDS011;6580;42.680;23.324;2024-02-23T13:18:25;2.70;;;2.50;;
13026;SDS011;6580;42.680;23.324;2024-02-23T13:20:52;3.55;;;2.42;;
13026;SDS011;6580;42.680;23.324;2024-02-23T13:23:20;2.47;;;2.33;;
13026;SDS011;6580;42.680;23.324;2024-02-23T13:25:47;3.17;;;2.87;;
13026;SDS011;6580;42.680;23.324;2024-02-23T13:28:14;2.53;;;2.33;;
13026;SDS011;6580;42.680;23.324;2024-02-23T13:30:41;2.95;;;2.75;;
13026;SDS011;6580;42.680;23.324;2024-02-23T13:33:08;3.73;;;2.47;;
13026;SDS011;6580;42.680;23.324;2024-02-23T13:35:41;2.67;;;2.50;;
13026;SDS011;6580;42.680;23.324;2024-02-23T13:38:09;4.83;;;3.33;;
13026;SDS011;6580;42.680;23.324;2024-02-23T13:40:36;5.18;;;4.00;;
13026;SDS011;6580;42.680;23.324;2024-02-23T13:43:03;3.10;;;2.90;;
13026;SDS011;6580;42.680;23.324;2024-02-23T13:45:30;5.00;;;2.60;;
13026;SDS011;6580;42.680;23.324;2024-02-23T13:47:58;2.53;;;2.33;;
13026;SDS011;6580;42.680;23.324;2024-02-23T13:50:26;4.63;;;2.77;;
13026;SDS011;6580;42.680;23.324;2024-02-23T13:52:55;5.03;;;3.00;;
13026;SDS011;6580;42.680;23.324;2024-02-23T13:55:22;2.80;;;2.53;;
13026;SDS011;6580;42.680;23.324;2024-02-23T13:57:49;3.10;;;2.90;;
13026;SDS011;6580;42.680;23.324;2024-02-23T14:00:17;3.00;;;2.40;;
13026;SDS011;6580;42.680;23.324;2024-02-23T14:02:45;3.80;;;2.53;;
13026;SDS011;6580;42.680;23.324;2024-02-23T14:05:13;2.97;;;2.70;;
13026;SDS011;6580;42.680;23.324;2024-02-23T14:07:43;3.93;;;2.40;;
13026;SDS011;6580;42.680;23.324;2024-02-23T14:10:12;2.67;;;2.40;;
13026;SDS011;6580;42.680;23.324;2024-02-23T14:12:39;2.87;;;2.50;;
13026;SDS011;6580;42.680;23.324;2024-02-23T14:15:07;2.10;;;2.00;;
13026;SDS011;6580;42.680;23.324;2024-02-23T14:17:35;2.53;;;2.33;;
13026;SDS011;6580;42.680;23.324;2024-02-23T14:20:02;2.60;;;2.40;;
13026;SDS011;6580;42.680;23.324;2024-02-23T14:22:31;2.40;;;2.20;;
13026;SDS011;6580;42.680;23.324;2024-02-23T14:24:58;2.97;;;2.77;;
13026;SDS011;6580;42.680;23.324;2024-02-23T14:27:27;2.40;;;2.20;;
13026;SDS011;6580;42.680;23.324;2024-02-23T14:29:54;2.97;;;2.70;;
13026;SDS011;6580;42.680;23.324;2024-02-23T14:32:21;3.78;;;3.47;;
13026;SDS011;6580;42.680;23.324;2024-02-23T14:34:48;3.00;;;2.70;;
13026;SDS011;6580;42.680;23.324;2024-02-23T14:37:16;3.08;;;2.80;;
13026;SDS011;6580;42.680;23.324;2024-02-23T14:39:42;2.93;;;2.60;;
13026;SDS011;6580;42.680;23.324;2024-02-23T14:42:09;4.67;;;2.77;;
13026;SDS011;6580;42.680;23.324;2024-02-23T14:44:38;3.10;;;2.60;;
13026;SDS011;6580;42.680;23.324;2024-02-23T14:47:05;3.17;;;2.87;;
13026;SDS011;6580;42.680;23.324;2024-02-23T14:49:32;3.00;;;2.70;;